sensor_id;sensor_type;location;lat;lon;timestamp;temperature;humidity
20672;DHT22;10495;50.922;4.760;2023-09-18T00:01:40;21.50;92.50
20672;DHT22;10495;50.922;4.760;2023-09-18T00:04:06;21.50;92.60
20672;DHT22;10495;50.922;4.760;2023-09-18T00:06:32;21.60;92.60
20672;DHT22;10495;50.922;4.760;2023-09-18T00:08:58;21.60;92.60
20672;DHT22;10495;50.922;4.760;2023-09-18T00:11:24;21.70;92.60
20672;DHT22;10495;50.922;4.760;2023-09-18T00:13:50;21.60;92.70
20672;DHT22;10495;50.922;4.760;2023-09-18T00:16:16;21.50;92.80
20672;DHT22;10495;50.922;4.760;2023-09-18T00:18:42;21.50;92.90
20672;DHT22;10495;50.922;4.760;2023-09-18T00:21:10;21.40;92.90
20672;DHT22;10495;50.922;4.760;2023-09-18T00:23:39;21.50;92.70
20672;DHT22;10495;50.922;4.760;2023-09-18T00:26:04;21.50;92.80
20672;DHT22;10495;50.922;4.760;2023-09-18T00:28:30;21.30;92.90
20672;DHT22;10495;50.922;4.760;2023-09-18T00:30:56;21.30;93.00
20672;DHT22;10495;50.922;4.760;2023-09-18T00:33:21;21.30;93.00
20672;DHT22;10495;50.922;4.760;2023-09-18T00:35:48;21.20;93.10
20672;DHT22;10495;50.922;4.760;2023-09-18T00:38:14;21.20;93.20
20672;DHT22;10495;50.922;4.760;2023-09-18T00:40:40;21.20;93.30
20672;DHT22;10495;50.922;4.760;2023-09-18T00:43:06;21.20;93.20
20672;DHT22;10495;50.922;4.760;2023-09-18T00:45:32;21.30;93.10
20672;DHT22;10495;50.922;4.760;2023-09-18T00:47:58;21.30;93.20
20672;DHT22;10495;50.922;4.760;2023-09-18T00:50:24;21.30;93.20
20672;DHT22;10495;50.922;4.760;2023-09-18T00:52:50;21.20;93.20
20672;DHT22;10495;50.922;4.760;2023-09-18T00:55:16;21.30;93.20
20672;DHT22;10495;50.922;4.760;2023-09-18T00:57:42;21.40;92.90
20672;DHT22;10495;50.922;4.760;2023-09-18T01:00:09;21.50;93.10
20672;DHT22;10495;50.922;4.760;2023-09-18T01:02:35;21.50;92.80
20672;DHT22;10495;50.922;4.760;2023-09-18T01:05:00;21.50;92.80
20672;DHT22;10495;50.922;4.760;2023-09-18T01:07:26;21.30;93.00
20672;DHT22;10495;50.922;4.760;2023-09-18T01:09:53;21.20;93.10
20672;DHT22;10495;50.922;4.760;2023-09-18T01:15:20;21.20;93.70
20672;DHT22;10495;50.922;4.760;2023-09-18T01:17:48;21.30;94.50
20672;DHT22;10495;50.922;4.760;2023-09-18T01:20:14;21.30;94.10
20672;DHT22;10495;50.922;4.760;2023-09-18T01:22:40;21.30;94.50
20672;DHT22;10495;50.922;4.760;2023-09-18T01:25:06;21.30;94.50
20672;DHT22;10495;50.922;4.760;2023-09-18T01:27:32;21.40;94.40
20672;DHT22;10495;50.922;4.760;2023-09-18T01:29:58;21.50;94.30
20672;DHT22;10495;50.922;4.760;2023-09-18T01:32:25;21.60;94.20
20672;DHT22;10495;50.922;4.760;2023-09-18T01:34:54;21.60;94.00
20672;DHT22;10495;50.922;4.760;2023-09-18T01:37:23;21.70;93.80
20672;DHT22;10495;50.922;4.760;2023-09-18T01:39:50;21.70;93.90
20672;DHT22;10495;50.922;4.760;2023-09-18T01:42:17;21.70;93.90
20672;DHT22;10495;50.922;4.760;2023-09-18T01:44:44;21.70;93.90
20672;DHT22;10495;50.922;4.760;2023-09-18T01:47:13;21.70;93.80
20672;DHT22;10495;50.922;4.760;2023-09-18T01:49:40;21.70;93.90
20672;DHT22;10495;50.922;4.760;2023-09-18T01:52:07;21.80;93.90
20672;DHT22;10495;50.922;4.760;2023-09-18T01:54:34;21.80;93.70
20672;DHT22;10495;50.922;4.760;2023-09-18T01:57:00;21.80;93.70
20672;DHT22;10495;50.922;4.760;2023-09-18T01:59:26;21.80;93.60
20672;DHT22;10495;50.922;4.760;2023-09-18T02:01:53;21.70;93.90
20672;DHT22;10495;50.922;4.760;2023-09-18T02:04:22;21.70;93.90
20672;DHT22;10495;50.922;4.760;2023-09-18T02:06:49;21.60;94.20
20672;DHT22;10495;50.922;4.760;2023-09-18T02:09:16;21.60;94.40
20672;DHT22;10495;50.922;4.760;2023-09-18T02:11:43;21.70;94.00
20672;DHT22;10495;50.922;4.760;2023-09-18T02:14:09;21.70;94.00
20672;DHT22;10495;50.922;4.760;2023-09-18T02:16:38;21.60;94.20
20672;DHT22;10495;50.922;4.760;2023-09-18T02:19:07;21.50;94.40
20672;DHT22;10495;50.922;4.760;2023-09-18T02:21:33;21.50;94.30
20672;DHT22;10495;50.922;4.760;2023-09-18T02:23:58;21.50;94.40
20672;DHT22;10495;50.922;4.760;2023-09-18T02:26:24;21.50;94.30
20672;DHT22;10495;50.922;4.760;2023-09-18T02:28:54;21.60;94.20
20672;DHT22;10495;50.922;4.760;2023-09-18T02:31:21;21.60;94.20
20672;DHT22;10495;50.922;4.760;2023-09-18T02:33:48;21.60;94.30
20672;DHT22;10495;50.922;4.760;2023-09-18T02:36:14;21.70;94.10
20672;DHT22;10495;50.922;4.760;2023-09-18T02:38:39;21.60;94.10
20672;DHT22;10495;50.922;4.760;2023-09-18T02:41:05;21.60;94.10
20672;DHT22;10495;50.922;4.760;2023-09-18T02:43:31;21.60;94.20
20672;DHT22;10495;50.922;4.760;2023-09-18T02:45:56;21.50;94.40
20672;DHT22;10495;50.922;4.760;2023-09-18T02:48:22;21.40;94.40
20672;DHT22;10495;50.922;4.760;2023-09-18T02:50:48;21.40;94.50
20672;DHT22;10495;50.922;4.760;2023-09-18T02:53:22;21.50;94.50
20672;DHT22;10495;50.922;4.760;2023-09-18T02:55:53;21.50;94.40
20672;DHT22;10495;50.922;4.760;2023-09-18T02:58:19;21.50;94.30
20672;DHT22;10495;50.922;4.760;2023-09-18T03:00:47;21.40;94.30
20672;DHT22;10495;50.922;4.760;2023-09-18T03:03:14;21.60;94.20
20672;DHT22;10495;50.922;4.760;2023-09-18T03:05:40;21.60;94.10
20672;DHT22;10495;50.922;4.760;2023-09-18T03:08:07;21.60;94.10
20672;DHT22;10495;50.922;4.760;2023-09-18T03:10:35;21.60;94.10
20672;DHT22;10495;50.922;4.760;2023-09-18T03:13:01;21.60;94.00
20672;DHT22;10495;50.922;4.760;2023-09-18T03:15:28;21.50;94.10
20672;DHT22;10495;50.922;4.760;2023-09-18T03:17:53;21.60;94.10
20672;DHT22;10495;50.922;4.760;2023-09-18T03:20:22;21.60;94.10
20672;DHT22;10495;50.922;4.760;2023-09-18T03:22:48;21.60;94.10
20672;DHT22;10495;50.922;4.760;2023-09-18T03:25:14;21.70;94.10
20672;DHT22;10495;50.922;4.760;2023-09-18T03:27:39;21.60;94.10
20672;DHT22;10495;50.922;4.760;2023-09-18T03:30:06;21.50;94.30
20672;DHT22;10495;50.922;4.760;2023-09-18T03:32:32;21.40;94.20
20672;DHT22;10495;50.922;4.760;2023-09-18T03:34:57;21.40;94.20
20672;DHT22;10495;50.922;4.760;2023-09-18T03:37:23;21.50;94.20
20672;DHT22;10495;50.922;4.760;2023-09-18T03:39:49;21.50;94.20
20672;DHT22;10495;50.922;4.760;2023-09-18T03:42:14;21.40;94.10
20672;DHT22;10495;50.922;4.760;2023-09-18T03:44:40;21.30;94.20
20672;DHT22;10495;50.922;4.760;2023-09-18T03:47:05;21.30;94.10
20672;DHT22;10495;50.922;4.760;2023-09-18T03:49:31;21.40;94.00
20672;DHT22;10495;50.922;4.760;2023-09-18T03:51:57;21.40;93.90
20672;DHT22;10495;50.922;4.760;2023-09-18T03:54:23;21.30;94.20
20672;DHT22;10495;50.922;4.760;2023-09-18T03:56:48;21.30;94.10
20672;DHT22;10495;50.922;4.760;2023-09-18T03:59:14;21.30;93.80
20672;DHT22;10495;50.922;4.760;2023-09-18T04:01:40;21.30;93.80
20672;DHT22;10495;50.922;4.760;2023-09-18T04:04:06;21.20;93.90
20672;DHT22;10495;50.922;4.760;2023-09-18T04:06:44;21.20;93.90
20672;DHT22;10495;50.922;4.760;2023-09-18T04:09:11;21.30;93.60
20672;DHT22;10495;50.922;4.760;2023-09-18T04:11:37;21.20;93.50
20672;DHT22;10495;50.922;4.760;2023-09-18T04:14:03;21.20;93.50
20672;DHT22;10495;50.922;4.760;2023-09-18T04:16:29;21.20;93.10
20672;DHT22;10495;50.922;4.760;2023-09-18T04:19:01;21.00;93.40
20672;DHT22;10495;50.922;4.760;2023-09-18T04:21:27;21.00;93.40
20672;DHT22;10495;50.922;4.760;2023-09-18T04:23:53;21.00;93.40
20672;DHT22;10495;50.922;4.760;2023-09-18T04:26:23;20.90;93.30
20672;DHT22;10495;50.922;4.760;2023-09-18T04:28:49;21.00;93.30
20672;DHT22;10495;50.922;4.760;2023-09-18T04:31:14;21.10;93.10
20672;DHT22;10495;50.922;4.760;2023-09-18T04:33:41;21.00;93.00
20672;DHT22;10495;50.922;4.760;2023-09-18T04:36:07;20.90;93.10
20672;DHT22;10495;50.922;4.760;2023-09-18T04:38:33;21.00;92.90
20672;DHT22;10495;50.922;4.760;2023-09-18T04:41:02;21.10;92.80
20672;DHT22;10495;50.922;4.760;2023-09-18T04:43:27;20.90;92.80
20672;DHT22;10495;50.922;4.760;2023-09-18T04:45:55;20.80;93.00
20672;DHT22;10495;50.922;4.760;2023-09-18T04:48:21;20.80;93.10
20672;DHT22;10495;50.922;4.760;2023-09-18T04:50:48;20.80;92.90
20672;DHT22;10495;50.922;4.760;2023-09-18T04:53:14;20.70;93.30
20672;DHT22;10495;50.922;4.760;2023-09-18T04:55:39;20.80;93.00
20672;DHT22;10495;50.922;4.760;2023-09-18T04:58:05;20.80;92.80
20672;DHT22;10495;50.922;4.760;2023-09-18T05:00:32;20.70;93.00
20672;DHT22;10495;50.922;4.760;2023-09-18T05:02:59;20.60;93.00
20672;DHT22;10495;50.922;4.760;2023-09-18T05:05:27;20.70;93.10
20672;DHT22;10495;50.922;4.760;2023-09-18T05:07:53;20.70;92.80
20672;DHT22;10495;50.922;4.760;2023-09-18T05:10:19;20.60;92.80
20672;DHT22;10495;50.922;4.760;2023-09-18T05:12:44;20.60;92.90
20672;DHT22;10495;50.922;4.760;2023-09-18T05:15:11;20.40;93.10
20672;DHT22;10495;50.922;4.760;2023-09-18T05:17:45;20.60;93.00
20672;DHT22;10495;50.922;4.760;2023-09-18T05:20:19;20.70;92.80
20672;DHT22;10495;50.922;4.760;2023-09-18T05:22:45;20.60;93.00
20672;DHT22;10495;50.922;4.760;2023-09-18T05:25:11;20.60;93.10
20672;DHT22;10495;50.922;4.760;2023-09-18T05:27:37;20.70;92.90
20672;DHT22;10495;50.922;4.760;2023-09-18T05:30:17;20.80;92.60
20672;DHT22;10495;50.922;4.760;2023-09-18T05:32:43;20.80;92.60
20672;DHT22;10495;50.922;4.760;2023-09-18T05:35:09;20.70;92.60
20672;DHT22;10495;50.922;4.760;2023-09-18T05:37:43;20.70;92.90
20672;DHT22;10495;50.922;4.760;2023-09-18T05:40:10;20.70;92.60
20672;DHT22;10495;50.922;4.760;2023-09-18T05:42:41;20.70;92.70
20672;DHT22;10495;50.922;4.760;2023-09-18T05:45:14;20.60;92.70
20672;DHT22;10495;50.922;4.760;2023-09-18T05:47:42;20.50;92.70
20672;DHT22;10495;50.922;4.760;2023-09-18T05:50:09;20.50;92.80
20672;DHT22;10495;50.922;4.760;2023-09-18T05:52:40;20.40;92.90
20672;DHT22;10495;50.922;4.760;2023-09-18T05:55:06;20.40;92.80
20672;DHT22;10495;50.922;4.760;2023-09-18T05:57:35;20.30;92.80
20672;DHT22;10495;50.922;4.760;2023-09-18T06:00:01;20.30;92.90
20672;DHT22;10495;50.922;4.760;2023-09-18T06:02:26;20.40;92.70
20672;DHT22;10495;50.922;4.760;2023-09-18T06:04:59;20.40;92.70
20672;DHT22;10495;50.922;4.760;2023-09-18T06:07:32;20.40;92.70
20672;DHT22;10495;50.922;4.760;2023-09-18T06:09:58;20.30;92.80
20672;DHT22;10495;50.922;4.760;2023-09-18T06:12:24;20.30;92.80
20672;DHT22;10495;50.922;4.760;2023-09-18T06:14:50;20.30;92.70
20672;DHT22;10495;50.922;4.760;2023-09-18T06:17:16;20.20;92.80
20672;DHT22;10495;50.922;4.760;2023-09-18T06:19:42;20.30;92.70
20672;DHT22;10495;50.922;4.760;2023-09-18T06:22:08;20.40;92.60
20672;DHT22;10495;50.922;4.760;2023-09-18T06:24:34;20.30;92.70
20672;DHT22;10495;50.922;4.760;2023-09-18T06:27:00;20.30;92.70
20672;DHT22;10495;50.922;4.760;2023-09-18T06:29:26;20.30;92.60
20672;DHT22;10495;50.922;4.760;2023-09-18T06:31:51;20.40;92.60
20672;DHT22;10495;50.922;4.760;2023-09-18T06:34:17;20.30;92.70
20672;DHT22;10495;50.922;4.760;2023-09-18T06:36:43;20.30;92.70
20672;DHT22;10495;50.922;4.760;2023-09-18T06:39:08;20.40;92.80
20672;DHT22;10495;50.922;4.760;2023-09-18T06:41:34;20.50;92.40
20672;DHT22;10495;50.922;4.760;2023-09-18T06:44:00;20.50;92.40
20672;DHT22;10495;50.922;4.760;2023-09-18T06:46:29;20.40;92.40
20672;DHT22;10495;50.922;4.760;2023-09-18T06:48:55;20.30;92.30
20672;DHT22;10495;50.922;4.760;2023-09-18T06:51:21;20.50;92.40
20672;DHT22;10495;50.922;4.760;2023-09-18T06:53:47;20.50;92.30
20672;DHT22;10495;50.922;4.760;2023-09-18T06:56:13;20.60;92.20
20672;DHT22;10495;50.922;4.760;2023-09-18T06:58:38;20.70;91.90
20672;DHT22;10495;50.922;4.760;2023-09-18T07:01:04;20.80;91.70
20672;DHT22;10495;50.922;4.760;2023-09-18T07:03:32;20.70;91.70
20672;DHT22;10495;50.922;4.760;2023-09-18T07:06:00;20.70;91.70
20672;DHT22;10495;50.922;4.760;2023-09-18T07:08:26;20.80;91.60
20672;DHT22;10495;50.922;4.760;2023-09-18T07:10:52;20.90;91.40
20672;DHT22;10495;50.922;4.760;2023-09-18T07:13:17;20.90;91.50
20672;DHT22;10495;50.922;4.760;2023-09-18T07:15:43;20.90;91.30
20672;DHT22;10495;50.922;4.760;2023-09-18T07:18:10;20.80;91.40
20672;DHT22;10495;50.922;4.760;2023-09-18T07:20:40;20.90;91.20
20672;DHT22;10495;50.922;4.760;2023-09-18T07:23:05;20.60;91.70
20672;DHT22;10495;50.922;4.760;2023-09-18T07:25:31;20.50;91.90
20672;DHT22;10495;50.922;4.760;2023-09-18T07:27:57;20.60;92.00
20672;DHT22;10495;50.922;4.760;2023-09-18T07:30:22;20.70;91.70
20672;DHT22;10495;50.922;4.760;2023-09-18T07:32:55;20.70;91.70
20672;DHT22;10495;50.922;4.760;2023-09-18T07:35:26;20.70;91.70
20672;DHT22;10495;50.922;4.760;2023-09-18T07:37:52;20.90;91.70
20672;DHT22;10495;50.922;4.760;2023-09-18T07:40:18;20.80;91.60
20672;DHT22;10495;50.922;4.760;2023-09-18T07:42:44;20.90;91.80
20672;DHT22;10495;50.922;4.760;2023-09-18T07:45:12;21.10;91.50
20672;DHT22;10495;50.922;4.760;2023-09-18T07:47:38;21.30;91.40
20672;DHT22;10495;50.922;4.760;2023-09-18T07:50:05;21.70;91.30
20672;DHT22;10495;50.922;4.760;2023-09-18T07:52:30;22.20;90.90
20672;DHT22;10495;50.922;4.760;2023-09-18T07:54:57;22.70;90.50
20672;DHT22;10495;50.922;4.760;2023-09-18T07:57:26;23.10;89.10
20672;DHT22;10495;50.922;4.760;2023-09-18T07:59:57;23.70;87.90
20672;DHT22;10495;50.922;4.760;2023-09-18T08:02:24;24.30;86.90
20672;DHT22;10495;50.922;4.760;2023-09-18T08:04:50;24.70;85.90
20672;DHT22;10495;50.922;4.760;2023-09-18T08:07:19;25.20;84.10
20672;DHT22;10495;50.922;4.760;2023-09-18T08:09:44;25.40;82.50
20672;DHT22;10495;50.922;4.760;2023-09-18T08:12:12;25.80;81.30
20672;DHT22;10495;50.922;4.760;2023-09-18T08:14:38;25.70;79.00
20672;DHT22;10495;50.922;4.760;2023-09-18T08:17:04;25.40;80.30
20672;DHT22;10495;50.922;4.760;2023-09-18T08:19:30;25.40;81.10
20672;DHT22;10495;50.922;4.760;2023-09-18T08:21:58;25.70;79.90
20672;DHT22;10495;50.922;4.760;2023-09-18T08:24:25;25.80;78.90
20672;DHT22;10495;50.922;4.760;2023-09-18T08:26:51;26.00;79.00
20672;DHT22;10495;50.922;4.760;2023-09-18T08:29:17;26.20;77.80
20672;DHT22;10495;50.922;4.760;2023-09-18T08:31:43;26.60;78.20
20672;DHT22;10495;50.922;4.760;2023-09-18T08:34:09;26.80;76.90
20672;DHT22;10495;50.922;4.760;2023-09-18T08:36:35;27.00;76.30
20672;DHT22;10495;50.922;4.760;2023-09-18T08:39:00;27.10;76.30
20672;DHT22;10495;50.922;4.760;2023-09-18T08:41:28;27.30;75.20
20672;DHT22;10495;50.922;4.760;2023-09-18T08:44:02;27.40;74.70
20672;DHT22;10495;50.922;4.760;2023-09-18T08:46:29;27.10;74.80
20672;DHT22;10495;50.922;4.760;2023-09-18T08:48:56;26.90;75.50
20672;DHT22;10495;50.922;4.760;2023-09-18T08:51:23;26.90;75.20
20672;DHT22;10495;50.922;4.760;2023-09-18T08:53:48;26.50;74.60
20672;DHT22;10495;50.922;4.760;2023-09-18T08:56:15;25.90;76.40
20672;DHT22;10495;50.922;4.760;2023-09-18T08:58:43;25.60;78.10
20672;DHT22;10495;50.922;4.760;2023-09-18T09:01:09;25.40;76.90
20672;DHT22;10495;50.922;4.760;2023-09-18T09:03:39;25.10;78.10
20672;DHT22;10495;50.922;4.760;2023-09-18T09:06:06;24.90;78.80
20672;DHT22;10495;50.922;4.760;2023-09-18T09:08:33;24.80;79.20
20672;DHT22;10495;50.922;4.760;2023-09-18T09:10:59;24.70;79.70
20672;DHT22;10495;50.922;4.760;2023-09-18T09:13:25;24.60;80.10
20672;DHT22;10495;50.922;4.760;2023-09-18T09:15:55;24.60;79.90
20672;DHT22;10495;50.922;4.760;2023-09-18T09:18:24;24.40;80.50
20672;DHT22;10495;50.922;4.760;2023-09-18T09:21:03;24.40;80.90
20672;DHT22;10495;50.922;4.760;2023-09-18T09:23:46;24.60;79.30
20672;DHT22;10495;50.922;4.760;2023-09-18T09:26:16;24.50;80.90
20672;DHT22;10495;50.922;4.760;2023-09-18T09:28:43;24.70;80.50
20672;DHT22;10495;50.922;4.760;2023-09-18T09:31:09;24.70;80.40
20672;DHT22;10495;50.922;4.760;2023-09-18T09:33:36;24.70;80.00
20672;DHT22;10495;50.922;4.760;2023-09-18T09:36:05;24.80;80.00
20672;DHT22;10495;50.922;4.760;2023-09-18T09:38:32;24.80;79.70
20672;DHT22;10495;50.922;4.760;2023-09-18T09:41:00;24.80;79.40
20672;DHT22;10495;50.922;4.760;2023-09-18T09:43:27;24.60;80.00
20672;DHT22;10495;50.922;4.760;2023-09-18T09:46:02;24.50;79.70
20672;DHT22;10495;50.922;4.760;2023-09-18T09:48:28;24.40;80.90
20672;DHT22;10495;50.922;4.760;2023-09-18T09:50:59;24.30;81.70
20672;DHT22;10495;50.922;4.760;2023-09-18T09:53:45;24.40;81.50
20672;DHT22;10495;50.922;4.760;2023-09-18T09:56:16;24.60;81.00
20672;DHT22;10495;50.922;4.760;2023-09-18T09:59:03;24.80;80.30
20672;DHT22;10495;50.922;4.760;2023-09-18T10:01:35;25.00;78.00
20672;DHT22;10495;50.922;4.760;2023-09-18T10:04:06;24.80;78.40
20672;DHT22;10495;50.922;4.760;2023-09-18T10:06:34;24.70;77.80
20672;DHT22;10495;50.922;4.760;2023-09-18T10:09:04;25.00;79.40
20672;DHT22;10495;50.922;4.760;2023-09-18T10:11:33;25.10;78.20
20672;DHT22;10495;50.922;4.760;2023-09-18T10:14:09;25.10;78.20
20672;DHT22;10495;50.922;4.760;2023-09-18T10:16:40;25.20;78.40
20672;DHT22;10495;50.922;4.760;2023-09-18T10:19:26;25.20;77.90
20672;DHT22;10495;50.922;4.760;2023-09-18T10:24:24;24.80;77.70
20672;DHT22;10495;50.922;4.760;2023-09-18T10:29:19;24.80;78.20
20672;DHT22;10495;50.922;4.760;2023-09-18T10:31:46;25.00;78.20
20672;DHT22;10495;50.922;4.760;2023-09-18T10:34:13;24.90;76.70
20672;DHT22;10495;50.922;4.760;2023-09-18T10:36:41;24.80;76.70
20672;DHT22;10495;50.922;4.760;2023-09-18T10:39:10;24.90;78.80
20672;DHT22;10495;50.922;4.760;2023-09-18T10:41:38;25.00;77.70
20672;DHT22;10495;50.922;4.760;2023-09-18T10:44:06;24.90;77.70
20672;DHT22;10495;50.922;4.760;2023-09-18T10:46:33;25.10;77.20
20672;DHT22;10495;50.922;4.760;2023-09-18T10:49:00;25.00;76.90
20672;DHT22;10495;50.922;4.760;2023-09-18T10:51:27;24.80;77.70
20672;DHT22;10495;50.922;4.760;2023-09-18T10:53:53;24.90;77.40
20672;DHT22;10495;50.922;4.760;2023-09-18T10:56:21;25.00;78.10
20672;DHT22;10495;50.922;4.760;2023-09-18T10:58:56;25.20;76.60
20672;DHT22;10495;50.922;4.760;2023-09-18T11:01:23;25.20;77.30
20672;DHT22;10495;50.922;4.760;2023-09-18T11:03:52;25.10;78.20
20672;DHT22;10495;50.922;4.760;2023-09-18T11:06:18;25.10;76.40
20672;DHT22;10495;50.922;4.760;2023-09-18T11:08:48;25.00;77.90
20672;DHT22;10495;50.922;4.760;2023-09-18T11:11:18;25.20;76.50
20672;DHT22;10495;50.922;4.760;2023-09-18T11:13:50;25.30;75.90
20672;DHT22;10495;50.922;4.760;2023-09-18T11:21:31;25.00;75.60
20672;DHT22;10495;50.922;4.760;2023-09-18T11:24:07;25.00;74.60
20672;DHT22;10495;50.922;4.760;2023-09-18T11:26:47;25.00;75.00
20672;DHT22;10495;50.922;4.760;2023-09-18T11:29:22;24.90;74.60
20672;DHT22;10495;50.922;4.760;2023-09-18T11:31:53;24.80;75.40
20672;DHT22;10495;50.922;4.760;2023-09-18T11:34:26;24.60;75.90
20672;DHT22;10495;50.922;4.760;2023-09-18T11:36:57;24.60;75.90
20672;DHT22;10495;50.922;4.760;2023-09-18T11:39:39;24.70;77.40
20672;DHT22;10495;50.922;4.760;2023-09-18T11:44:35;24.80;76.40
20672;DHT22;10495;50.922;4.760;2023-09-18T11:47:08;24.70;76.40
20672;DHT22;10495;50.922;4.760;2023-09-18T11:49:38;24.70;76.90
20672;DHT22;10495;50.922;4.760;2023-09-18T11:52:07;24.70;77.00
20672;DHT22;10495;50.922;4.760;2023-09-18T11:54:33;24.60;76.80
20672;DHT22;10495;50.922;4.760;2023-09-18T11:57:03;24.60;77.40
20672;DHT22;10495;50.922;4.760;2023-09-18T11:59:37;25.00;77.00
20672;DHT22;10495;50.922;4.760;2023-09-18T12:02:03;24.90;74.70
20672;DHT22;10495;50.922;4.760;2023-09-18T12:04:32;24.80;75.00
20672;DHT22;10495;50.922;4.760;2023-09-18T12:06:59;24.80;75.50
20672;DHT22;10495;50.922;4.760;2023-09-18T12:09:31;24.70;76.30
20672;DHT22;10495;50.922;4.760;2023-09-18T12:11:59;24.80;76.40
20672;DHT22;10495;50.922;4.760;2023-09-18T12:14:33;24.90;76.30
20672;DHT22;10495;50.922;4.760;2023-09-18T12:17:02;24.80;77.10
20672;DHT22;10495;50.922;4.760;2023-09-18T12:19:29;24.90;76.20
20672;DHT22;10495;50.922;4.760;2023-09-18T12:21:56;24.90;76.60
20672;DHT22;10495;50.922;4.760;2023-09-18T12:24:25;24.90;74.90
20672;DHT22;10495;50.922;4.760;2023-09-18T12:26:52;25.10;74.90
20672;DHT22;10495;50.922;4.760;2023-09-18T12:29:19;25.10;76.00
20672;DHT22;10495;50.922;4.760;2023-09-18T12:31:45;25.00;74.60
20672;DHT22;10495;50.922;4.760;2023-09-18T12:34:21;25.00;73.20
20672;DHT22;10495;50.922;4.760;2023-09-18T12:36:47;25.00;73.40
20672;DHT22;10495;50.922;4.760;2023-09-18T12:39:17;25.00;74.20
20672;DHT22;10495;50.922;4.760;2023-09-18T12:41:46;25.00;73.70
20672;DHT22;10495;50.922;4.760;2023-09-18T12:44:12;25.00;72.60
20672;DHT22;10495;50.922;4.760;2023-09-18T12:46:41;25.00;72.70
20672;DHT22;10495;50.922;4.760;2023-09-18T12:49:17;24.90;72.60
20672;DHT22;10495;50.922;4.760;2023-09-18T12:51:42;24.70;73.60
20672;DHT22;10495;50.922;4.760;2023-09-18T12:54:09;24.80;73.50
20672;DHT22;10495;50.922;4.760;2023-09-18T12:56:40;24.70;73.80
20672;DHT22;10495;50.922;4.760;2023-09-18T12:59:06;24.90;73.20
20672;DHT22;10495;50.922;4.760;2023-09-18T13:01:32;25.10;71.90
20672;DHT22;10495;50.922;4.760;2023-09-18T13:03:58;25.10;71.90
20672;DHT22;10495;50.922;4.760;2023-09-18T13:06:31;25.30;72.00
20672;DHT22;10495;50.922;4.760;2023-09-18T13:09:15;25.50;71.00
20672;DHT22;10495;50.922;4.760;2023-09-18T13:11:55;25.20;70.10
20672;DHT22;10495;50.922;4.760;2023-09-18T13:14:21;25.00;70.30
20672;DHT22;10495;50.922;4.760;2023-09-18T13:16:46;25.00;71.90
20672;DHT22;10495;50.922;4.760;2023-09-18T13:19:12;25.10;69.10
20672;DHT22;10495;50.922;4.760;2023-09-18T13:21:38;25.10;69.60
20672;DHT22;10495;50.922;4.760;2023-09-18T13:24:06;25.00;69.20
20672;DHT22;10495;50.922;4.760;2023-09-18T13:26:32;24.90;69.50
20672;DHT22;10495;50.922;4.760;2023-09-18T13:28:58;25.00;68.50
20672;DHT22;10495;50.922;4.760;2023-09-18T13:31:23;25.00;68.30
20672;DHT22;10495;50.922;4.760;2023-09-18T13:33:49;25.20;69.20
20672;DHT22;10495;50.922;4.760;2023-09-18T13:36:14;25.40;68.40
20672;DHT22;10495;50.922;4.760;2023-09-18T13:38:40;25.50;68.80
20672;DHT22;10495;50.922;4.760;2023-09-18T13:41:06;25.20;66.70
20672;DHT22;10495;50.922;4.760;2023-09-18T13:43:32;25.10;65.50
20672;DHT22;10495;50.922;4.760;2023-09-18T13:46:00;25.20;65.80
20672;DHT22;10495;50.922;4.760;2023-09-18T13:48:25;25.10;65.80
20672;DHT22;10495;50.922;4.760;2023-09-18T13:50:51;25.30;67.10
20672;DHT22;10495;50.922;4.760;2023-09-18T13:53:18;25.40;66.20
20672;DHT22;10495;50.922;4.760;2023-09-18T13:55:43;25.50;65.10
20672;DHT22;10495;50.922;4.760;2023-09-18T13:58:09;25.30;65.60
20672;DHT22;10495;50.922;4.760;2023-09-18T14:00:35;25.10;65.90
20672;DHT22;10495;50.922;4.760;2023-09-18T14:03:01;25.20;66.30
20672;DHT22;10495;50.922;4.760;2023-09-18T14:05:28;25.30;66.80
20672;DHT22;10495;50.922;4.760;2023-09-18T14:07:55;25.30;66.70
20672;DHT22;10495;50.922;4.760;2023-09-18T14:10:26;25.40;65.70
20672;DHT22;10495;50.922;4.760;2023-09-18T14:12:52;25.40;66.30
20672;DHT22;10495;50.922;4.760;2023-09-18T14:15:18;25.30;64.60
20672;DHT22;10495;50.922;4.760;2023-09-18T14:17:44;25.20;65.00
20672;DHT22;10495;50.922;4.760;2023-09-18T14:20:09;25.30;65.10
20672;DHT22;10495;50.922;4.760;2023-09-18T14:22:36;25.50;63.60
20672;DHT22;10495;50.922;4.760;2023-09-18T14:25:02;25.40;64.00
20672;DHT22;10495;50.922;4.760;2023-09-18T14:27:32;25.50;62.00
20672;DHT22;10495;50.922;4.760;2023-09-18T14:29:57;25.50;63.20
20672;DHT22;10495;50.922;4.760;2023-09-18T14:32:23;25.20;64.50
20672;DHT22;10495;50.922;4.760;2023-09-18T14:34:49;25.30;64.20
20672;DHT22;10495;50.922;4.760;2023-09-18T14:37:14;25.20;65.10
20672;DHT22;10495;50.922;4.760;2023-09-18T14:39:40;25.40;65.50
20672;DHT22;10495;50.922;4.760;2023-09-18T14:42:06;25.60;63.60
20672;DHT22;10495;50.922;4.760;2023-09-18T14:44:31;25.50;63.50
20672;DHT22;10495;50.922;4.760;2023-09-18T14:46:58;25.40;63.70
20672;DHT22;10495;50.922;4.760;2023-09-18T14:49:25;25.40;63.90
20672;DHT22;10495;50.922;4.760;2023-09-18T14:51:53;25.10;64.20
20672;DHT22;10495;50.922;4.760;2023-09-18T14:54:19;25.00;64.70
20672;DHT22;10495;50.922;4.760;2023-09-18T14:56:45;25.10;64.70
20672;DHT22;10495;50.922;4.760;2023-09-18T14:59:12;25.20;64.50
20672;DHT22;10495;50.922;4.760;2023-09-18T15:01:38;25.20;64.20
20672;DHT22;10495;50.922;4.760;2023-09-18T15:04:03;25.10;64.20
20672;DHT22;10495;50.922;4.760;2023-09-18T15:06:29;25.00;64.80
20672;DHT22;10495;50.922;4.760;2023-09-18T15:08:55;24.90;65.00
20672;DHT22;10495;50.922;4.760;2023-09-18T15:11:21;25.10;66.00
20672;DHT22;10495;50.922;4.760;2023-09-18T15:13:46;25.00;67.40
20672;DHT22;10495;50.922;4.760;2023-09-18T15:16:12;24.90;74.70
20672;DHT22;10495;50.922;4.760;2023-09-18T15:18:38;24.30;78.30
20672;DHT22;10495;50.922;4.760;2023-09-18T15:21:05;24.00;81.70
20672;DHT22;10495;50.922;4.760;2023-09-18T15:23:30;23.60;84.10
20672;DHT22;10495;50.922;4.760;2023-09-18T15:25:56;22.80;83.00
20672;DHT22;10495;50.922;4.760;2023-09-18T15:28:26;22.30;84.50
20672;DHT22;10495;50.922;4.760;2023-09-18T15:30:54;22.20;86.00
20672;DHT22;10495;50.922;4.760;2023-09-18T15:33:20;22.20;87.60
20672;DHT22;10495;50.922;4.760;2023-09-18T15:35:51;22.20;87.60
20672;DHT22;10495;50.922;4.760;2023-09-18T15:38:18;22.00;88.00
20672;DHT22;10495;50.922;4.760;2023-09-18T15:40:43;21.90;88.60
20672;DHT22;10495;50.922;4.760;2023-09-18T15:43:09;22.00;89.10
20672;DHT22;10495;50.922;4.760;2023-09-18T15:45:35;22.00;89.70
20672;DHT22;10495;50.922;4.760;2023-09-18T15:48:03;22.20;89.60